sensor_id;sensor_type;location;lat;lon;timestamp;P1;durP1;ratioP1;P2;durP2;ratioP2
76296;SDS011;65104;52.994;6.552;2023-07-31T00:02:22;4.93;;;2.42;;
76296;SDS011;65104;52.994;6.552;2023-07-31T00:04:48;2.95;;;1.98;;
76296;SDS011;65104;52.994;6.552;2023-07-31T00:07:14;3.08;;;1.92;;
76296;SDS011;65104;52.994;6.552;2023-07-31T00:09:39;3.38;;;2.15;;
76296;SDS011;65104;52.994;6.552;2023-07-31T00:12:11;3.83;;;2.10;;
76296;SDS011;65104;52.994;6.552;2023-07-31T00:14:36;4.20;;;1.92;;
76296;SDS011;65104;52.994;6.552;2023-07-31T00:17:02;3.83;;;2.10;;
76296;SDS011;65104;52.994;6.552;2023-07-31T00:19:27;5.10;;;1.77;;
76296;SDS011;65104;52.994;6.552;2023-07-31T00:21:53;5.15;;;2.50;;
76296;SDS011;65104;52.994;6.552;2023-07-31T00:24:18;3.00;;;2.15;;
76296;SDS011;65104;52.994;6.552;2023-07-31T00:26:43;4.68;;;2.45;;
76296;SDS011;65104;52.994;6.552;2023-07-31T00:29:09;3.40;;;2.38;;
76296;SDS011;65104;52.994;6.552;2023-07-31T00:31:34;2.85;;;1.95;;
76296;SDS011;65104;52.994;6.552;2023-07-31T00:34:00;2.83;;;1.95;;
76296;SDS011;65104;52.994;6.552;2023-07-31T00:36:25;3.80;;;2.15;;
76296;SDS011;65104;52.994;6.552;2023-07-31T00:38:50;3.60;;;2.08;;
76296;SDS011;65104;52.994;6.552;2023-07-31T00:41:16;3.75;;;2.20;;
76296;SDS011;65104;52.994;6.552;2023-07-31T00:43:41;3.08;;;2.28;;
76296;SDS011;65104;52.994;6.552;2023-07-31T00:46:07;4.18;;;2.35;;
76296;SDS011;65104;52.994;6.552;2023-07-31T00:48:32;3.33;;;2.05;;
76296;SDS011;65104;52.994;6.552;2023-07-31T00:50:59;3.33;;;1.73;;
76296;SDS011;65104;52.994;6.552;2023-07-31T00:53:26;3.83;;;2.25;;
76296;SDS011;65104;52.994;6.552;2023-07-31T00:55:52;3.80;;;2.40;;
76296;SDS011;65104;52.994;6.552;2023-07-31T00:58:18;3.72;;;2.13;;
76296;SDS011;65104;52.994;6.552;2023-07-31T01:00:43;4.72;;;2.10;;
76296;SDS011;65104;52.994;6.552;2023-07-31T01:03:09;4.97;;;2.45;;
76296;SDS011;65104;52.994;6.552;2023-07-31T01:08:18;2.97;;;2.13;;
76296;SDS011;65104;52.994;6.552;2023-07-31T01:11:05;2.63;;;1.60;;
76296;SDS011;65104;52.994;6.552;2023-07-31T01:13:35;1.80;;;1.60;;
76296;SDS011;65104;52.994;6.552;2023-07-31T01:16:00;2.83;;;1.50;;
76296;SDS011;65104;52.994;6.552;2023-07-31T01:18:26;2.17;;;1.48;;
76296;SDS011;65104;52.994;6.552;2023-07-31T01:20:54;1.40;;;1.30;;
76296;SDS011;65104;52.994;6.552;2023-07-31T01:23:35;1.17;;;1.00;;
76296;SDS011;65104;52.994;6.552;2023-07-31T01:26:23;1.48;;;1.00;;
76296;SDS011;65104;52.994;6.552;2023-07-31T01:29:09;1.30;;;0.95;;
76296;SDS011;65104;52.994;6.552;2023-07-31T01:31:42;1.20;;;0.77;;
76296;SDS011;65104;52.994;6.552;2023-07-31T01:34:13;1.35;;;1.08;;
76296;SDS011;65104;52.994;6.552;2023-07-31T01:36:42;6.43;;;1.10;;
76296;SDS011;65104;52.994;6.552;2023-07-31T01:39:07;1.33;;;0.73;;
76296;SDS011;65104;52.994;6.552;2023-07-31T01:41:33;1.30;;;0.80;;
76296;SDS011;65104;52.994;6.552;2023-07-31T01:43:58;1.80;;;0.70;;
76296;SDS011;65104;52.994;6.552;2023-07-31T01:46:23;0.50;;;0.50;;
76296;SDS011;65104;52.994;6.552;2023-07-31T01:48:49;0.75;;;0.47;;
76296;SDS011;65104;52.994;6.552;2023-07-31T01:51:14;0.80;;;0.60;;
76296;SDS011;65104;52.994;6.552;2023-07-31T01:53:40;0.40;;;0.40;;
76296;SDS011;65104;52.994;6.552;2023-07-31T01:56:05;0.80;;;0.50;;
76296;SDS011;65104;52.994;6.552;2023-07-31T01:58:30;0.35;;;0.30;;
76296;SDS011;65104;52.994;6.552;2023-07-31T02:00:56;1.27;;;0.50;;
76296;SDS011;65104;52.994;6.552;2023-07-31T02:03:21;0.93;;;0.50;;
76296;SDS011;65104;52.994;6.552;2023-07-31T02:05:47;1.77;;;0.60;;
76296;SDS011;65104;52.994;6.552;2023-07-31T02:08:14;0.73;;;0.50;;
76296;SDS011;65104;52.994;6.552;2023-07-31T02:10:40;1.15;;;0.60;;
76296;SDS011;65104;52.994;6.552;2023-07-31T02:13:05;0.55;;;0.50;;
76296;SDS011;65104;52.994;6.552;2023-07-31T02:15:31;1.85;;;0.55;;
76296;SDS011;65104;52.994;6.552;2023-07-31T02:17:57;0.57;;;0.57;;
76296;SDS011;65104;52.994;6.552;2023-07-31T02:20:22;0.40;;;0.38;;
76296;SDS011;65104;52.994;6.552;2023-07-31T02:22:47;0.43;;;0.40;;
76296;SDS011;65104;52.994;6.552;2023-07-31T02:25:13;0.40;;;0.30;;
76296;SDS011;65104;52.994;6.552;2023-07-31T02:27:38;0.60;;;0.40;;
76296;SDS011;65104;52.994;6.552;2023-07-31T02:30:04;1.17;;;0.45;;
76296;SDS011;65104;52.994;6.552;2023-07-31T02:32:30;0.68;;;0.50;;
76296;SDS011;65104;52.994;6.552;2023-07-31T02:34:55;1.98;;;0.52;;
76296;SDS011;65104;52.994;6.552;2023-07-31T02:37:20;0.63;;;0.47;;
76296;SDS011;65104;52.994;6.552;2023-07-31T02:39:46;0.55;;;0.45;;
76296;SDS011;65104;52.994;6.552;2023-07-31T02:42:12;0.85;;;0.52;;
76296;SDS011;65104;52.994;6.552;2023-07-31T02:44:38;0.55;;;0.40;;
76296;SDS011;65104;52.994;6.552;2023-07-31T02:47:03;1.30;;;0.70;;
76296;SDS011;65104;52.994;6.552;2023-07-31T02:49:28;1.20;;;0.50;;
76296;SDS011;65104;52.994;6.552;2023-07-31T02:51:54;0.47;;;0.43;;
76296;SDS011;65104;52.994;6.552;2023-07-31T02:54:19;0.73;;;0.43;;
76296;SDS011;65104;52.994;6.552;2023-07-31T02:56:46;1.00;;;0.40;;
76296;SDS011;65104;52.994;6.552;2023-07-31T02:59:12;0.47;;;0.47;;
76296;SDS011;65104;52.994;6.552;2023-07-31T03:01:37;0.30;;;0.30;;
76296;SDS011;65104;52.994;6.552;2023-07-31T03:04:03;0.55;;;0.38;;
76296;SDS011;65104;52.994;6.552;2023-07-31T03:06:28;0.50;;;0.50;;
76296;SDS011;65104;52.994;6.552;2023-07-31T03:08:54;0.40;;;0.30;;
76296;SDS011;65104;52.994;6.552;2023-07-31T03:11:19;0.30;;;0.30;;
76296;SDS011;65104;52.994;6.552;2023-07-31T03:13:44;0.55;;;0.40;;
76296;SDS011;65104;52.994;6.552;2023-07-31T03:16:10;0.68;;;0.50;;
76296;SDS011;65104;52.994;6.552;2023-07-31T03:18:35;0.93;;;0.50;;
76296;SDS011;65104;52.994;6.552;2023-07-31T03:21:00;0.50;;;0.40;;
76296;SDS011;65104;52.994;6.552;2023-07-31T03:23:26;0.70;;;0.50;;
76296;SDS011;65104;52.994;6.552;2023-07-31T03:25:58;0.60;;;0.35;;
76296;SDS011;65104;52.994;6.552;2023-07-31T03:28:28;1.77;;;0.55;;
76296;SDS011;65104;52.994;6.552;2023-07-31T03:30:54;0.55;;;0.40;;
76296;SDS011;65104;52.994;6.552;2023-07-31T03:33:20;0.40;;;0.40;;
76296;SDS011;65104;52.994;6.552;2023-07-31T03:35:45;0.40;;;0.40;;
76296;SDS011;65104;52.994;6.552;2023-07-31T03:38:11;0.60;;;0.60;;
76296;SDS011;65104;52.994;6.552;2023-07-31T03:40:36;0.20;;;0.20;;
76296;SDS011;65104;52.994;6.552;2023-07-31T03:43:01;0.40;;;0.40;;
76296;SDS011;65104;52.994;6.552;2023-07-31T03:45:27;0.50;;;0.50;;
76296;SDS011;65104;52.994;6.552;2023-07-31T03:47:52;0.47;;;0.32;;
76296;SDS011;65104;52.994;6.552;2023-07-31T03:50:19;1.08;;;0.60;;
76296;SDS011;65104;52.994;6.552;2023-07-31T03:52:45;0.55;;;0.40;;
76296;SDS011;65104;52.994;6.552;2023-07-31T03:55:10;0.40;;;0.40;;
76296;SDS011;65104;52.994;6.552;2023-07-31T03:57:35;1.38;;;0.40;;
76296;SDS011;65104;52.994;6.552;2023-07-31T04:00:01;1.50;;;0.50;;
76296;SDS011;65104;52.994;6.552;2023-07-31T04:02:26;0.30;;;0.30;;
76296;SDS011;65104;52.994;6.552;2023-07-31T04:04:52;1.00;;;0.52;;
76296;SDS011;65104;52.994;6.552;2023-07-31T04:07:17;0.40;;;0.40;;
76296;SDS011;65104;52.994;6.552;2023-07-31T04:09:42;0.30;;;0.30;;
76296;SDS011;65104;52.994;6.552;2023-07-31T04:12:08;0.30;;;0.30;;
76296;SDS011;65104;52.994;6.552;2023-07-31T04:14:33;0.60;;;0.40;;
76296;SDS011;65104;52.994;6.552;2023-07-31T04:16:59;0.38;;;0.38;;
76296;SDS011;65104;52.994;6.552;2023-07-31T04:19:24;1.40;;;0.45;;
76296;SDS011;65104;52.994;6.552;2023-07-31T04:21:52;0.57;;;0.40;;
76296;SDS011;65104;52.994;6.552;2023-07-31T04:24:18;0.40;;;0.40;;
76296;SDS011;65104;52.994;6.552;2023-07-31T04:26:49;0.68;;;0.50;;
76296;SDS011;65104;52.994;6.552;2023-07-31T04:29:15;0.50;;;0.50;;
76296;SDS011;65104;52.994;6.552;2023-07-31T04:31:41;0.77;;;0.50;;
76296;SDS011;65104;52.994;6.552;2023-07-31T04:34:06;0.52;;;0.43;;
76296;SDS011;65104;52.994;6.552;2023-07-31T04:36:33;0.50;;;0.40;;
76296;SDS011;65104;52.994;6.552;2023-07-31T04:38:59;1.42;;;0.60;;
76296;SDS011;65104;52.994;6.552;2023-07-31T04:41:25;1.75;;;0.55;;
76296;SDS011;65104;52.994;6.552;2023-07-31T04:43:50;1.95;;;0.45;;
76296;SDS011;65104;52.994;6.552;2023-07-31T04:46:16;0.55;;;0.30;;
76296;SDS011;65104;52.994;6.552;2023-07-31T04:48:41;0.55;;;0.40;;
76296;SDS011;65104;52.994;6.552;2023-07-31T04:51:07;0.40;;;0.40;;
76296;SDS011;65104;52.994;6.552;2023-07-31T04:53:34;1.00;;;0.52;;
76296;SDS011;65104;52.994;6.552;2023-07-31T04:55:59;0.43;;;0.35;;
76296;SDS011;65104;52.994;6.552;2023-07-31T04:58:24;1.15;;;0.60;;
76296;SDS011;65104;52.994;6.552;2023-07-31T05:00:50;1.38;;;0.45;;
76296;SDS011;65104;52.994;6.552;2023-07-31T05:03:15;0.65;;;0.50;;
76296;SDS011;65104;52.994;6.552;2023-07-31T05:05:41;1.83;;;0.90;;
76296;SDS011;65104;52.994;6.552;2023-07-31T05:08:06;0.82;;;0.73;;
76296;SDS011;65104;52.994;6.552;2023-07-31T05:10:31;1.40;;;0.95;;
76296;SDS011;65104;52.994;6.552;2023-07-31T05:12:57;2.28;;;0.82;;
76296;SDS011;65104;52.994;6.552;2023-07-31T05:15:22;1.45;;;0.88;;
76296;SDS011;65104;52.994;6.552;2023-07-31T05:17:47;3.60;;;1.15;;
76296;SDS011;65104;52.994;6.552;2023-07-31T05:20:13;4.03;;;1.40;;
76296;SDS011;65104;52.994;6.552;2023-07-31T05:22:39;3.47;;;1.50;;
76296;SDS011;65104;52.994;6.552;2023-07-31T05:25:05;2.65;;;1.60;;
76296;SDS011;65104;52.994;6.552;2023-07-31T05:27:31;4.07;;;1.38;;
76296;SDS011;65104;52.994;6.552;2023-07-31T05:29:57;5.45;;;2.13;;
76296;SDS011;65104;52.994;6.552;2023-07-31T05:32:22;6.70;;;2.00;;
76296;SDS011;65104;52.994;6.552;2023-07-31T05:34:50;3.63;;;1.83;;
76296;SDS011;65104;52.994;6.552;2023-07-31T05:37:16;5.72;;;2.38;;
76296;SDS011;65104;52.994;6.552;2023-07-31T05:39:42;7.82;;;3.25;;
76296;SDS011;65104;52.994;6.552;2023-07-31T05:42:07;5.05;;;2.90;;
76296;SDS011;65104;52.994;6.552;2023-07-31T05:44:32;9.93;;;3.47;;
76296;SDS011;65104;52.994;6.552;2023-07-31T05:46:58;12.18;;;3.88;;
76296;SDS011;65104;52.994;6.552;2023-07-31T05:49:23;7.95;;;3.95;;
76296;SDS011;65104;52.994;6.552;2023-07-31T05:51:48;8.13;;;3.05;;
76296;SDS011;65104;52.994;6.552;2023-07-31T05:54:14;9.32;;;4.00;;
76296;SDS011;65104;52.994;6.552;2023-07-31T05:56:39;12.18;;;3.80;;
76296;SDS011;65104;52.994;6.552;2023-07-31T05:59:04;10.77;;;4.03;;
76296;SDS011;65104;52.994;6.552;2023-07-31T06:01:30;13.23;;;3.75;;
76296;SDS011;65104;52.994;6.552;2023-07-31T06:03:55;8.55;;;3.60;;
76296;SDS011;65104;52.994;6.552;2023-07-31T06:06:20;12.05;;;4.03;;
76296;SDS011;65104;52.994;6.552;2023-07-31T06:08:46;8.40;;;3.97;;
76296;SDS011;65104;52.994;6.552;2023-07-31T06:11:11;11.82;;;3.40;;
76296;SDS011;65104;52.994;6.552;2023-07-31T06:13:37;11.90;;;3.92;;
76296;SDS011;65104;52.994;6.552;2023-07-31T06:16:02;9.98;;;3.90;;
76296;SDS011;65104;52.994;6.552;2023-07-31T06:18:30;10.68;;;3.25;;
76296;SDS011;65104;52.994;6.552;2023-07-31T06:20:57;9.10;;;2.88;;
76296;SDS011;65104;52.994;6.552;2023-07-31T06:23:22;8.88;;;4.10;;
76296;SDS011;65104;52.994;6.552;2023-07-31T06:25:48;9.52;;;3.33;;
76296;SDS011;65104;52.994;6.552;2023-07-31T06:28:13;12.05;;;3.53;;
76296;SDS011;65104;52.994;6.552;2023-07-31T06:30:39;13.75;;;3.67;;
76296;SDS011;65104;52.994;6.552;2023-07-31T06:33:04;11.85;;;3.60;;
76296;SDS011;65104;52.994;6.552;2023-07-31T06:35:29;9.77;;;4.03;;
76296;SDS011;65104;52.994;6.552;2023-07-31T06:37:55;12.60;;;3.13;;
76296;SDS011;65104;52.994;6.552;2023-07-31T06:40:20;9.07;;;3.10;;
76296;SDS011;65104;52.994;6.552;2023-07-31T06:42:47;6.88;;;3.42;;
76296;SDS011;65104;52.994;6.552;2023-07-31T06:45:12;9.15;;;3.45;;
76296;SDS011;65104;52.994;6.552;2023-07-31T06:47:37;7.75;;;3.42;;
76296;SDS011;65104;52.994;6.552;2023-07-31T06:50:03;8.93;;;3.55;;
76296;SDS011;65104;52.994;6.552;2023-07-31T06:52:29;8.95;;;3.85;;
76296;SDS011;65104;52.994;6.552;2023-07-31T06:55:09;7.70;;;2.95;;
76296;SDS011;65104;52.994;6.552;2023-07-31T06:57:45;10.07;;;3.05;;
76296;SDS011;65104;52.994;6.552;2023-07-31T07:00:18;9.30;;;3.25;;
76296;SDS011;65104;52.994;6.552;2023-07-31T07:02:44;9.23;;;3.58;;
76296;SDS011;65104;52.994;6.552;2023-07-31T07:05:12;10.65;;;3.53;;
76296;SDS011;65104;52.994;6.552;2023-07-31T07:07:38;9.35;;;2.85;;
76296;SDS011;65104;52.994;6.552;2023-07-31T07:10:04;10.57;;;3.38;;
76296;SDS011;65104;52.994;6.552;2023-07-31T07:12:30;10.23;;;3.30;;
76296;SDS011;65104;52.994;6.552;2023-07-31T07:14:56;9.45;;;3.78;;
76296;SDS011;65104;52.994;6.552;2023-07-31T07:17:25;10.27;;;3.47;;
76296;SDS011;65104;52.994;6.552;2023-07-31T07:19:51;8.55;;;3.10;;
76296;SDS011;65104;52.994;6.552;2023-07-31T07:22:17;6.45;;;3.30;;
76296;SDS011;65104;52.994;6.552;2023-07-31T07:24:42;4.97;;;2.70;;
76296;SDS011;65104;52.994;6.552;2023-07-31T07:27:08;6.85;;;2.78;;
76296;SDS011;65104;52.994;6.552;2023-07-31T07:29:33;3.88;;;2.17;;
76296;SDS011;65104;52.994;6.552;2023-07-31T07:31:59;8.80;;;2.70;;
76296;SDS011;65104;52.994;6.552;2023-07-31T07:34:26;4.55;;;2.10;;
76296;SDS011;65104;52.994;6.552;2023-07-31T07:36:52;6.47;;;2.25;;
76296;SDS011;65104;52.994;6.552;2023-07-31T07:39:17;4.80;;;2.00;;
76296;SDS011;65104;52.994;6.552;2023-07-31T07:41:43;4.35;;;1.70;;
76296;SDS011;65104;52.994;6.552;2023-07-31T07:44:08;3.85;;;1.73;;
76296;SDS011;65104;52.994;6.552;2023-07-31T07:46:34;3.15;;;1.65;;
76296;SDS011;65104;52.994;6.552;2023-07-31T07:48:59;3.10;;;1.65;;
76296;SDS011;65104;52.994;6.552;2023-07-31T07:51:25;2.90;;;1.90;;
76296;SDS011;65104;52.994;6.552;2023-07-31T07:53:50;2.75;;;1.50;;
76296;SDS011;65104;52.994;6.552;2023-07-31T07:56:15;4.10;;;1.58;;
76296;SDS011;65104;52.994;6.552;2023-07-31T07:58:41;2.80;;;1.90;;
76296;SDS011;65104;52.994;6.552;2023-07-31T08:01:06;5.47;;;1.65;;
76296;SDS011;65104;52.994;6.552;2023-07-31T08:03:31;2.97;;;1.45;;
76296;SDS011;65104;52.994;6.552;2023-07-31T08:05:58;5.97;;;2.00;;
76296;SDS011;65104;52.994;6.552;2023-07-31T08:08:26;2.25;;;1.67;;
76296;SDS011;65104;52.994;6.552;2023-07-31T08:10:52;2.38;;;1.25;;
76296;SDS011;65104;52.994;6.552;2023-07-31T08:13:18;1.88;;;1.08;;
76296;SDS011;65104;52.994;6.552;2023-07-31T08:15:43;2.38;;;1.58;;
76296;SDS011;65104;52.994;6.552;2023-07-31T08:18:09;3.58;;;1.23;;
76296;SDS011;65104;52.994;6.552;2023-07-31T08:23:01;2.73;;;1.27;;
76296;SDS011;65104;52.994;6.552;2023-07-31T08:25:26;2.80;;;1.00;;
76296;SDS011;65104;52.994;6.552;2023-07-31T08:27:52;1.33;;;0.90;;
76296;SDS011;65104;52.994;6.552;2023-07-31T08:30:18;2.28;;;1.27;;
76296;SDS011;65104;52.994;6.552;2023-07-31T08:32:43;1.10;;;0.95;;
76296;SDS011;65104;52.994;6.552;2023-07-31T08:35:09;1.83;;;1.05;;
76296;SDS011;65104;52.994;6.552;2023-07-31T08:37:34;1.80;;;1.02;;
76296;SDS011;65104;52.994;6.552;2023-07-31T08:39:59;2.50;;;0.98;;
76296;SDS011;65104;52.994;6.552;2023-07-31T08:42:25;1.15;;;0.88;;
76296;SDS011;65104;52.994;6.552;2023-07-31T08:44:50;1.27;;;1.15;;
76296;SDS011;65104;52.994;6.552;2023-07-31T08:47:17;2.53;;;0.95;;
76296;SDS011;65104;52.994;6.552;2023-07-31T08:49:45;1.75;;;1.10;;
76296;SDS011;65104;52.994;6.552;2023-07-31T08:52:11;2.53;;;1.00;;
76296;SDS011;65104;52.994;6.552;2023-07-31T08:54:36;1.92;;;0.90;;
76296;SDS011;65104;52.994;6.552;2023-07-31T08:57:02;2.15;;;1.10;;
76296;SDS011;65104;52.994;6.552;2023-07-31T08:59:31;1.10;;;1.00;;
76296;SDS011;65104;52.994;6.552;2023-07-31T09:02:01;1.70;;;1.15;;
76296;SDS011;65104;52.994;6.552;2023-07-31T09:04:31;1.27;;;0.80;;
76296;SDS011;65104;52.994;6.552;2023-07-31T09:06:57;2.17;;;1.10;;
76296;SDS011;65104;52.994;6.552;2023-07-31T09:09:26;1.75;;;0.93;;
76296;SDS011;65104;52.994;6.552;2023-07-31T09:11:51;0.85;;;0.80;;
76296;SDS011;65104;52.994;6.552;2023-07-31T09:14:18;1.23;;;0.75;;
76296;SDS011;65104;52.994;6.552;2023-07-31T09:16:57;0.77;;;0.75;;
76296;SDS011;65104;52.994;6.552;2023-07-31T09:19:29;2.47;;;0.98;;
76296;SDS011;65104;52.994;6.552;2023-07-31T09:21:59;0.73;;;0.73;;
76296;SDS011;65104;52.994;6.552;2023-07-31T09:24:25;0.70;;;0.52;;
76296;SDS011;65104;52.994;6.552;2023-07-31T09:26:54;1.08;;;0.80;;
76296;SDS011;65104;52.994;6.552;2023-07-31T09:29:21;1.23;;;0.65;;
76296;SDS011;65104;52.994;6.552;2023-07-31T09:31:47;0.60;;;0.50;;
76296;SDS011;65104;52.994;6.552;2023-07-31T09:34:12;0.77;;;0.70;;
76296;SDS011;65104;52.994;6.552;2023-07-31T09:36:44;0.68;;;0.63;;
76296;SDS011;65104;52.994;6.552;2023-07-31T09:39:12;0.30;;;0.30;;
76296;SDS011;65104;52.994;6.552;2023-07-31T09:41:42;0.68;;;0.45;;
76296;SDS011;65104;52.994;6.552;2023-07-31T09:44:09;1.00;;;0.50;;
76296;SDS011;65104;52.994;6.552;2023-07-31T09:46:35;0.50;;;0.30;;
76296;SDS011;65104;52.994;6.552;2023-07-31T09:49:08;0.40;;;0.35;;
76296;SDS011;65104;52.994;6.552;2023-07-31T09:51:34;0.45;;;0.35;;
76296;SDS011;65104;52.994;6.552;2023-07-31T09:54:03;1.02;;;0.32;;
76296;SDS011;65104;52.994;6.552;2023-07-31T09:56:34;0.63;;;0.32;;
76296;SDS011;65104;52.994;6.552;2023-07-31T09:59:01;0.95;;;0.50;;
76296;SDS011;65104;52.994;6.552;2023-07-31T10:01:29;0.43;;;0.30;;
76296;SDS011;65104;52.994;6.552;2023-07-31T10:03:54;0.30;;;0.30;;
76296;SDS011;65104;52.994;6.552;2023-07-31T10:08:48;0.52;;;0.43;;
76296;SDS011;65104;52.994;6.552;2023-07-31T10:11:18;1.65;;;0.47;;
76296;SDS011;65104;52.994;6.552;2023-07-31T10:13:44;0.90;;;0.50;;
76296;SDS011;65104;52.994;6.552;2023-07-31T10:16:10;0.82;;;0.43;;
76296;SDS011;65104;52.994;6.552;2023-07-31T10:18:37;0.60;;;0.40;;
76296;SDS011;65104;52.994;6.552;2023-07-31T10:21:04;0.50;;;0.50;;
76296;SDS011;65104;52.994;6.552;2023-07-31T10:23:31;0.68;;;0.63;;
76296;SDS011;65104;52.994;6.552;2023-07-31T10:25:57;0.32;;;0.32;;
76296;SDS011;65104;52.994;6.552;2023-07-31T10:28:24;0.47;;;0.35;;
76296;SDS011;65104;52.994;6.552;2023-07-31T10:30:50;0.32;;;0.32;;
76296;SDS011;65104;52.994;6.552;2023-07-31T10:33:17;0.30;;;0.30;;
76296;SDS011;65104;52.994;6.552;2023-07-31T10:35:43;0.73;;;0.50;;
76296;SDS011;65104;52.994;6.552;2023-07-31T10:38:11;0.30;;;0.30;;
76296;SDS011;65104;52.994;6.552;2023-07-31T10:40:38;0.30;;;0.30;;
76296;SDS011;65104;52.994;6.552;2023-07-31T10:43:04;0.30;;;0.30;;
76296;SDS011;65104;52.994;6.552;2023-07-31T10:48:16;1.88;;;1.42;;
76296;SDS011;65104;52.994;6.552;2023-07-31T10:53:24;0.85;;;0.50;;
76296;SDS011;65104;52.994;6.552;2023-07-31T10:55:50;0.38;;;0.38;;
76296;SDS011;65104;52.994;6.552;2023-07-31T10:58:19;0.50;;;0.30;;
76296;SDS011;65104;52.994;6.552;2023-07-31T11:00:48;0.52;;;0.38;;
76296;SDS011;65104;52.994;6.552;2023-07-31T11:03:15;0.50;;;0.50;;
76296;SDS011;65104;52.994;6.552;2023-07-31T11:11:07;1.48;;;0.70;;
76296;SDS011;65104;52.994;6.552;2023-07-31T11:13:41;0.73;;;0.50;;
76296;SDS011;65104;52.994;6.552;2023-07-31T11:16:06;1.05;;;0.60;;
76296;SDS011;65104;52.994;6.552;2023-07-31T11:18:32;0.50;;;0.50;;
76296;SDS011;65104;52.994;6.552;2023-07-31T11:20:57;0.55;;;0.40;;
76296;SDS011;65104;52.994;6.552;2023-07-31T11:23:23;0.32;;;0.30;;
76296;SDS011;65104;52.994;6.552;2023-07-31T11:25:49;0.20;;;0.20;;
76296;SDS011;65104;52.994;6.552;2023-07-31T11:28:15;1.13;;;0.30;;
76296;SDS011;65104;52.994;6.552;2023-07-31T11:30:42;0.40;;;0.32;;
76296;SDS011;65104;52.994;6.552;2023-07-31T11:33:09;0.40;;;0.40;;
76296;SDS011;65104;52.994;6.552;2023-07-31T11:35:40;0.98;;;0.20;;
76296;SDS011;65104;52.994;6.552;2023-07-31T11:38:07;1.00;;;0.30;;
76296;SDS011;65104;52.994;6.552;2023-07-31T11:40:40;0.10;;;0.10;;
76296;SDS011;65104;52.994;6.552;2023-07-31T11:43:06;1.45;;;0.20;;
76296;SDS011;65104;52.994;6.552;2023-07-31T11:45:32;0.82;;;0.22;;
76296;SDS011;65104;52.994;6.552;2023-07-31T11:47:58;0.10;;;0.10;;
76296;SDS011;65104;52.994;6.552;2023-07-31T11:50:24;0.20;;;0.10;;
76296;SDS011;65104;52.994;6.552;2023-07-31T11:52:57;0.05;;;0.05;;
76296;SDS011;65104;52.994;6.552;2023-07-31T11:55:25;0.57;;;0.22;;
76296;SDS011;65104;52.994;6.552;2023-07-31T11:57:51;0.50;;;0.50;;
76296;SDS011;65104;52.994;6.552;2023-07-31T12:00:18;1.48;;;0.20;;
76296;SDS011;65104;52.994;6.552;2023-07-31T12:02:44;0.17;;;0.10;;
76296;SDS011;65104;52.994;6.552;2023-07-31T12:05:11;0.80;;;0.30;;
76296;SDS011;65104;52.994;6.552;2023-07-31T12:07:44;0.30;;;0.30;;
76296;SDS011;65104;52.994;6.552;2023-07-31T12:10:10;0.65;;;0.50;;
76296;SDS011;65104;52.994;6.552;2023-07-31T12:12:36;0.90;;;0.30;;
76296;SDS011;65104;52.994;6.552;2023-07-31T12:15:01;0.38;;;0.28;;
76296;SDS011;65104;52.994;6.552;2023-07-31T12:17:27;1.42;;;0.40;;
76296;SDS011;65104;52.994;6.552;2023-07-31T12:19:52;2.13;;;0.40;;
76296;SDS011;65104;52.994;6.552;2023-07-31T12:22:19;0.95;;;0.50;;
76296;SDS011;65104;52.994;6.552;2023-07-31T12:24:48;1.00;;;0.90;;
76296;SDS011;65104;52.994;6.552;2023-07-31T12:27:14;0.80;;;0.30;;
76296;SDS011;65104;52.994;6.552;2023-07-31T12:29:43;0.98;;;0.43;;
76296;SDS011;65104;52.994;6.552;2023-07-31T12:32:24;0.30;;;0.30;;
76296;SDS011;65104;52.994;6.552;2023-07-31T12:34:50;0.50;;;0.43;;
76296;SDS011;65104;52.994;6.552;2023-07-31T12:37:16;1.50;;;0.45;;
76296;SDS011;65104;52.994;6.552;2023-07-31T12:39:41;1.08;;;0.40;;
76296;SDS011;65104;52.994;6.552;2023-07-31T12:42:07;1.15;;;0.50;;
76296;SDS011;65104;52.994;6.552;2023-07-31T12:44:32;2.60;;;0.60;;
76296;SDS011;65104;52.994;6.552;2023-07-31T12:46:58;1.83;;;0.93;;
76296;SDS011;65104;52.994;6.552;2023-07-31T12:49:23;2.50;;;0.80;;
76296;SDS011;65104;52.994;6.552;2023-07-31T12:51:48;1.67;;;0.73;;
76296;SDS011;65104;52.994;6.552;2023-07-31T12:54:14;1.60;;;0.90;;
76296;SDS011;65104;52.994;6.552;2023-07-31T12:56:39;0.77;;;0.70;;
76296;SDS011;65104;52.994;6.552;2023-07-31T12:59:05;0.75;;;0.70;;
76296;SDS011;65104;52.994;6.552;2023-07-31T13:01:31;2.35;;;0.70;;
76296;SDS011;65104;52.994;6.552;2023-07-31T13:03:56;2.30;;;1.10;;
76296;SDS011;65104;52.994;6.552;2023-07-31T13:06:22;1.23;;;0.93;;
76296;SDS011;65104;52.994;6.552;2023-07-31T13:08:47;3.03;;;0.77;;
76296;SDS011;65104;52.994;6.552;2023-07-31T13:11:13;1.92;;;1.27;;
76296;SDS011;65104;52.994;6.552;2023-07-31T13:13:38;2.17;;;1.30;;
76296;SDS011;65104;52.994;6.552;2023-07-31T13:16:03;1.42;;;1.02;;
76296;SDS011;65104;52.994;6.552;2023-07-31T13:18:29;2.72;;;0.98;;
76296;SDS011;65104;52.994;6.552;2023-07-31T13:20:54;1.92;;;1.30;;
76296;SDS011;65104;52.994;6.552;2023-07-31T13:23:20;2.10;;;1.60;;
76296;SDS011;65104;52.994;6.552;2023-07-31T13:25:45;3.55;;;1.40;;
76296;SDS011;65104;52.994;6.552;2023-07-31T13:28:11;3.95;;;1.60;;
76296;SDS011;65104;52.994;6.552;2023-07-31T13:30:36;2.70;;;1.95;;
76296;SDS011;65104;52.994;6.552;2023-07-31T13:33:01;5.25;;;2.00;;
76296;SDS011;65104;52.994;6.552;2023-07-31T13:35:27;3.35;;;1.33;;
76296;SDS011;65104;52.994;6.552;2023-07-31T13:37:53;2.20;;;1.60;;
76296;SDS011;65104;52.994;6.552;2023-07-31T13:40:18;4.10;;;1.42;;
76296;SDS011;65104;52.994;6.552;2023-07-31T13:42:43;3.47;;;2.05;;
76296;SDS011;65104;52.994;6.552;2023-07-31T13:45:09;4.68;;;1.58;;
76296;SDS011;65104;52.994;6.552;2023-07-31T13:47:34;3.05;;;1.80;;
76296;SDS011;65104;52.994;6.552;2023-07-31T13:50:02;3.15;;;1.73;;
76296;SDS011;65104;52.994;6.552;2023-07-31T13:52:27;4.63;;;1.88;;
76296;SDS011;65104;52.994;6.552;2023-07-31T13:54:52;2.70;;;1.88;;
76296;SDS011;65104;52.994;6.552;2023-07-31T13:57:18;4.45;;;1.70;;
76296;SDS011;65104;52.994;6.552;2023-07-31T13:59:43;6.85;;;2.22;;
76296;SDS011;65104;52.994;6.552;2023-07-31T14:02:09;3.10;;;1.65;;
76296;SDS011;65104;52.994;6.552;2023-07-31T14:04:34;5.18;;;1.80;;
76296;SDS011;65104;52.994;6.552;2023-07-31T14:06:59;5.50;;;1.90;;
76296;SDS011;65104;52.994;6.552;2023-07-31T14:09:25;3.25;;;2.17;;
76296;SDS011;65104;52.994;6.552;2023-07-31T14:11:51;5.05;;;2.13;;
76296;SDS011;65104;52.994;6.552;2023-07-31T14:14:17;5.68;;;1.58;;
76296;SDS011;65104;52.994;6.552;2023-07-31T14:16:43;2.78;;;1.52;;
76296;SDS011;65104;52.994;6.552;2023-07-31T14:19:08;5.05;;;1.52;;
76296;SDS011;65104;52.994;6.552;2023-07-31T14:21:34;2.83;;;1.45;;
76296;SDS011;65104;52.994;6.552;2023-07-31T14:23:59;4.43;;;2.83;;
76296;SDS011;65104;52.994;6.552;2023-07-31T14:26:25;2.80;;;1.70;;
76296;SDS011;65104;52.994;6.552;2023-07-31T14:28:50;4.50;;;1.83;;
76296;SDS011;65104;52.994;6.552;2023-07-31T14:31:15;2.75;;;1.98;;
76296;SDS011;65104;52.994;6.552;2023-07-31T14:33:41;4.57;;;1.80;;
76296;SDS011;65104;52.994;6.552;2023-07-31T14:36:06;6.18;;;2.38;;
76296;SDS011;65104;52.994;6.552;2023-07-31T14:38:32;6.45;;;2.35;;
76296;SDS011;65104;52.994;6.552;2023-07-31T14:40:57;4.32;;;2.20;;
76296;SDS011;65104;52.994;6.552;2023-07-31T14:43:23;8.85;;;2.08;;
76296;SDS011;65104;52.994;6.552;2023-07-31T14:45:48;4.32;;;1.90;;
76296;SDS011;65104;52.994;6.552;2023-07-31T14:48:14;5.72;;;1.80;;
76296;SDS011;65104;52.994;6.552;2023-07-31T14:50:40;3.22;;;1.67;;
76296;SDS011;65104;52.994;6.552;2023-07-31T14:53:06;4.55;;;2.00;;
76296;SDS011;65104;52.994;6.552;2023-07-31T14:55:31;6.15;;;2.05;;
76296;SDS011;65104;52.994;6.552;2023-07-31T14:57:56;6.60;;;2.45;;
76296;SDS011;65104;52.994;6.552;2023-07-31T15:00:22;4.45;;;1.90;;
76296;SDS011;65104;52.994;6.552;2023-07-31T15:05:14;4.53;;;1.77;;